createdAt,value
2018-12-06T00:00:58.854Z,6.60
2018-12-06T00:03:27.315Z,6.60
2018-12-06T00:05:55.999Z,6.60
2018-12-06T00:08:24.451Z,6.60
2018-12-06T00:10:52.863Z,6.60
2018-12-06T00:13:21.337Z,6.60
2018-12-06T00:15:50.541Z,6.60
2018-12-06T00:18:19.007Z,6.70
2018-12-06T00:20:47.437Z,6.70
2018-12-06T00:23:15.883Z,6.70
2018-12-06T00:25:44.611Z,6.70
2018-12-06T00:28:13.128Z,6.70
2018-12-06T00:30:42.661Z,6.70
2018-12-06T00:34:00.985Z,6.80
2018-12-06T00:36:29.390Z,6.80
2018-12-06T00:38:57.862Z,6.80
2018-12-06T00:41:26.275Z,6.90
2018-12-06T00:43:54.654Z,6.90
2018-12-06T00:46:23.090Z,6.90
2018-12-06T00:48:51.463Z,6.90
2018-12-06T00:51:19.877Z,6.90
2018-12-06T00:53:48.272Z,6.90
2018-12-06T00:56:16.645Z,6.90
2018-12-06T00:58:45.057Z,6.90
2018-12-06T01:01:13.468Z,6.90
2018-12-06T01:03:41.862Z,6.90
2018-12-06T01:06:10.287Z,6.90
2018-12-06T01:08:38.669Z,6.90
2018-12-06T01:11:07.094Z,6.90
2018-12-06T01:13:35.489Z,6.90
2018-12-06T01:16:03.977Z,6.90
2018-12-06T01:18:32.458Z,7.00
2018-12-06T01:21:00.827Z,6.90
2018-12-06T01:23:29.229Z,6.90
2018-12-06T01:25:57.735Z,6.90
2018-12-06T01:28:26.114Z,6.90
2018-12-06T01:30:54.545Z,6.90
2018-12-06T01:33:23.050Z,6.90
2018-12-06T01:35:51.507Z,6.90
2018-12-06T01:38:19.942Z,6.90
2018-12-06T01:40:48.357Z,6.90
2018-12-06T01:43:16.753Z,6.90
2018-12-06T01:45:45.126Z,6.90
2018-12-06T01:48:13.766Z,6.90
2018-12-06T01:50:42.221Z,6.90
2018-12-06T01:53:10.601Z,6.90
2018-12-06T01:55:39.045Z,6.90
2018-12-06T01:58:07.432Z,7.00
2018-12-06T02:00:35.808Z,7.00
2018-12-06T02:03:04.291Z,7.00
2018-12-06T02:05:32.738Z,7.00
2018-12-06T02:08:01.199Z,7.00
2018-12-06T02:10:29.786Z,7.00
2018-12-06T02:12:58.209Z,7.00
2018-12-06T02:15:26.655Z,7.00
2018-12-06T02:17:55.057Z,7.00
2018-12-06T02:20:23.415Z,7.10
2018-12-06T02:22:51.851Z,7.10
2018-12-06T02:25:20.245Z,7.10
2018-12-06T02:27:48.632Z,7.10
2018-12-06T02:30:17.026Z,7.10
2018-12-06T02:32:45.493Z,7.10
2018-12-06T02:35:13.900Z,7.10
2018-12-06T02:37:42.321Z,7.20
2018-12-06T02:40:10.723Z,7.20
2018-12-06T02:42:39.128Z,7.20
2018-12-06T02:45:07.607Z,7.20
2018-12-06T02:47:35.989Z,7.20
2018-12-06T02:50:04.625Z,7.20
2018-12-06T02:52:33.056Z,7.20
2018-12-06T02:55:01.521Z,7.30
2018-12-06T02:57:29.964Z,7.30
2018-12-06T02:59:58.333Z,7.30
2018-12-06T03:02:26.785Z,7.30
2018-12-06T03:04:55.165Z,7.30
2018-12-06T03:07:23.551Z,7.30
2018-12-06T03:09:51.931Z,7.30
2018-12-06T03:12:20.432Z,7.30
2018-12-06T03:14:48.817Z,7.30
2018-12-06T03:17:17.230Z,7.40
2018-12-06T03:19:45.673Z,7.30
2018-12-06T03:22:14.042Z,7.40
2018-12-06T03:24:42.474Z,7.40
2018-12-06T03:27:10.948Z,7.40
2018-12-06T03:29:39.431Z,7.40
2018-12-06T03:32:07.995Z,7.40
2018-12-06T03:34:36.367Z,7.50
2018-12-06T03:37:04.766Z,7.50
2018-12-06T03:39:33.158Z,7.50
2018-12-06T03:42:01.538Z,7.50
2018-12-06T03:44:32.081Z,7.50
2018-12-06T03:47:00.482Z,7.50
2018-12-06T03:49:28.856Z,7.60
2018-12-06T03:51:57.233Z,7.60
2018-12-06T03:54:25.603Z,7.60
2018-12-06T03:56:54.061Z,7.60
2018-12-06T03:59:22.443Z,7.60
2018-12-06T04:01:50.805Z,7.60
2018-12-06T04:04:19.165Z,7.60
2018-12-06T04:06:47.789Z,7.70
2018-12-06T04:09:16.275Z,7.70
2018-12-06T04:11:44.676Z,7.70
2018-12-06T04:14:13.170Z,7.70
2018-12-06T04:16:41.546Z,7.70
2018-12-06T04:19:09.987Z,7.80
2018-12-06T04:21:38.426Z,7.80
2018-12-06T04:24:06.873Z,7.80
2018-12-06T04:26:35.363Z,7.80
2018-12-06T04:29:03.769Z,7.80
2018-12-06T04:31:34.919Z,7.80
2018-12-06T04:34:03.315Z,7.80
2018-12-06T04:36:31.712Z,7.80
2018-12-06T04:39:00.342Z,7.80
2018-12-06T04:41:28.707Z,7.70
2018-12-06T04:43:57.110Z,7.80
2018-12-06T04:46:25.480Z,7.80
2018-12-06T04:48:53.893Z,7.80
2018-12-06T04:51:22.302Z,7.80
2018-12-06T04:53:50.651Z,7.90
2018-12-06T04:56:19.031Z,7.90
2018-12-06T04:58:47.482Z,7.90
2018-12-06T05:01:16.062Z,7.90
2018-12-06T05:03:44.504Z,7.90
2018-12-06T05:06:12.955Z,8.00
2018-12-06T05:08:41.326Z,8.00
2018-12-06T05:11:09.731Z,8.00
2018-12-06T05:13:38.137Z,8.00
2018-12-06T05:16:06.511Z,8.00
2018-12-06T05:18:34.891Z,8.00
2018-12-06T05:21:03.277Z,8.00
2018-12-06T05:23:31.916Z,8.10
2018-12-06T05:26:00.295Z,8.10
2018-12-06T05:28:28.636Z,8.10
2018-12-06T05:30:57.029Z,8.10
2018-12-06T05:33:25.429Z,8.10
2018-12-06T05:35:53.816Z,8.10
2018-12-06T05:38:22.230Z,8.10
2018-12-06T05:40:50.646Z,8.10
2018-12-06T05:43:19.091Z,8.10
2018-12-06T05:45:47.547Z,8.10
2018-12-06T05:48:15.824Z,8.10
2018-12-06T05:50:44.318Z,8.20
2018-12-06T05:53:12.842Z,8.20
2018-12-06T05:55:41.225Z,8.20
2018-12-06T05:58:09.661Z,8.20
2018-12-06T06:00:38.129Z,8.10
2018-12-06T06:03:06.541Z,8.20
2018-12-06T06:05:34.982Z,8.10
2018-12-06T06:08:03.361Z,8.10
2018-12-06T06:10:32.027Z,8.20
2018-12-06T06:13:00.377Z,8.20
2018-12-06T06:15:28.779Z,8.20
2018-12-06T06:17:57.196Z,8.20
2018-12-06T06:20:25.626Z,8.10
2018-12-06T06:22:54.022Z,8.20
2018-12-06T06:25:22.451Z,8.20
2018-12-06T06:27:50.929Z,8.20
2018-12-06T06:30:19.402Z,8.20
2018-12-06T06:32:47.804Z,8.20
2018-12-06T06:35:16.135Z,8.20
2018-12-06T06:37:44.545Z,8.20
2018-12-06T06:40:12.948Z,8.20
2018-12-06T06:42:41.478Z,8.20
2018-12-06T06:45:10.020Z,8.20
2018-12-06T06:47:38.446Z,8.20
2018-12-06T06:50:07.310Z,8.20
2018-12-06T06:52:35.669Z,8.20
2018-12-06T06:55:04.305Z,8.20
2018-12-06T06:57:32.825Z,8.20
2018-12-06T07:00:01.273Z,8.20
2018-12-06T07:02:29.851Z,8.20
2018-12-06T07:04:58.230Z,8.20
2018-12-06T07:07:26.612Z,8.20
2018-12-06T07:09:55.052Z,8.20
2018-12-06T07:12:23.437Z,8.20
2018-12-06T07:14:51.836Z,8.30
2018-12-06T07:17:20.257Z,8.20
2018-12-06T07:19:48.714Z,8.30
2018-12-06T07:22:17.073Z,8.20
2018-12-06T07:24:45.874Z,8.30
2018-12-06T07:27:14.279Z,8.30
2018-12-06T07:29:42.766Z,8.30
2018-12-06T07:32:11.328Z,8.30
2018-12-06T07:34:40.053Z,8.30
2018-12-06T07:37:08.755Z,8.30
2018-12-06T07:39:37.208Z,8.30
2018-12-06T07:42:05.868Z,8.30
2018-12-06T07:44:34.361Z,8.40
2018-12-06T07:47:03.784Z,8.40
2018-12-06T07:49:32.552Z,8.40
2018-12-06T07:52:01.022Z,8.40
2018-12-06T07:54:29.520Z,8.40
2018-12-06T07:56:58.023Z,8.40
2018-12-06T07:59:26.462Z,8.40
2018-12-06T08:01:55.059Z,8.40
2018-12-06T08:04:23.577Z,8.40
2018-12-06T08:06:52.030Z,8.40
2018-12-06T08:09:20.431Z,8.40
2018-12-06T08:11:48.950Z,8.40
2018-12-06T08:14:18.069Z,8.40
2018-12-06T08:16:46.411Z,8.50
2018-12-06T08:19:14.886Z,8.50
2018-12-06T08:21:43.681Z,8.50
2018-12-06T08:24:12.081Z,8.50
2018-12-06T08:26:40.507Z,8.50
2018-12-06T08:29:08.993Z,8.50
2018-12-06T08:31:37.410Z,8.50
2018-12-06T08:34:06.606Z,8.60
2018-12-06T08:36:35.331Z,8.60
2018-12-06T08:39:04.642Z,8.60
2018-12-06T08:41:35.725Z,8.60
2018-12-06T08:44:05.199Z,8.60
2018-12-06T08:46:33.658Z,8.60
2018-12-06T08:49:03.082Z,8.60
2018-12-06T08:51:31.784Z,8.70
2018-12-06T08:54:00.173Z,8.70
2018-12-06T08:56:28.596Z,8.70
2018-12-06T08:58:57.010Z,8.70
2018-12-06T09:01:25.489Z,8.80
2018-12-06T09:03:54.033Z,8.70
2018-12-06T09:06:22.503Z,8.80
2018-12-06T09:08:50.951Z,8.80
2018-12-06T09:11:19.392Z,8.80
2018-12-06T09:13:47.829Z,8.80
2018-12-06T09:16:16.335Z,8.80
2018-12-06T09:18:44.864Z,8.90
2018-12-06T09:21:13.426Z,8.90
2018-12-06T09:23:41.902Z,8.90
2018-12-06T09:26:10.324Z,9.00
2018-12-06T09:28:38.842Z,9.00
2018-12-06T09:31:07.387Z,9.10
2018-12-06T09:33:45.867Z,9.10
2018-12-06T09:36:14.362Z,9.10
2018-12-06T09:38:42.923Z,9.20
2018-12-06T09:41:11.506Z,9.20
2018-12-06T09:43:40.040Z,9.30
2018-12-06T09:46:08.519Z,9.30
2018-12-06T09:48:36.994Z,9.30
2018-12-06T09:51:05.615Z,9.40
2018-12-06T09:53:34.179Z,9.40
2018-12-06T09:56:02.732Z,9.50
2018-12-06T09:58:31.160Z,9.50
2018-12-06T10:00:59.602Z,9.50
2018-12-06T10:03:28.155Z,9.60
2018-12-06T10:05:56.605Z,9.70
2018-12-06T10:08:25.089Z,9.70
2018-12-06T10:10:53.949Z,9.80
2018-12-06T10:13:22.448Z,9.80
2018-12-06T10:15:50.931Z,9.90
2018-12-06T10:18:19.397Z,9.90
2018-12-06T10:20:48.071Z,9.90
2018-12-06T10:23:16.541Z,9.90
2018-12-06T10:25:45.098Z,9.90
2018-12-06T10:28:13.595Z,9.90
2018-12-06T10:30:42.115Z,10.00
2018-12-06T10:33:10.684Z,10.00
2018-12-06T10:35:39.365Z,10.00
2018-12-06T10:38:07.920Z,10.10
2018-12-06T10:40:36.367Z,10.10
2018-12-06T10:43:05.106Z,10.20
2018-12-06T10:45:33.798Z,10.20
2018-12-06T10:48:02.250Z,10.20
2018-12-06T10:50:30.799Z,10.30
2018-12-06T10:52:59.373Z,10.30
2018-12-06T10:55:27.829Z,10.40
2018-12-06T10:57:56.252Z,10.40
2018-12-06T11:00:29.986Z,10.50
2018-12-06T11:03:03.713Z,10.50
2018-12-06T11:05:32.121Z,10.50
2018-12-06T11:08:00.553Z,10.60
2018-12-06T11:10:28.975Z,10.60
2018-12-06T11:12:57.408Z,10.70
2018-12-06T11:15:25.925Z,10.70
2018-12-06T11:17:54.331Z,10.60
2018-12-06T11:20:22.799Z,10.60
2018-12-06T11:22:51.281Z,10.60
2018-12-06T11:25:20.431Z,10.60
2018-12-06T11:27:48.863Z,10.70
2018-12-06T11:30:17.297Z,10.70
2018-12-06T11:32:45.705Z,10.70
2018-12-06T11:35:14.378Z,10.70
2018-12-06T11:37:42.833Z,10.80
2018-12-06T11:40:11.239Z,10.80
2018-12-06T11:42:39.739Z,10.90
2018-12-06T11:45:08.152Z,11.00
2018-12-06T11:47:36.690Z,11.10
2018-12-06T11:50:06.568Z,11.20
2018-12-06T11:52:35.054Z,11.30
2018-12-06T11:55:06.210Z,11.30
2018-12-06T11:57:34.800Z,11.40
2018-12-06T12:00:03.698Z,11.50
2018-12-06T12:02:32.136Z,11.50
2018-12-06T12:05:00.601Z,11.50
2018-12-06T12:07:29.090Z,11.50
2018-12-06T12:09:57.535Z,11.50
2018-12-06T12:12:26.005Z,11.50
2018-12-06T12:14:54.432Z,11.50
2018-12-06T12:17:22.897Z,11.50
2018-12-06T12:19:51.364Z,11.50
2018-12-06T12:22:19.945Z,11.40
2018-12-06T12:24:48.422Z,11.40
2018-12-06T12:27:20.915Z,11.40
2018-12-06T12:29:49.409Z,11.50
2018-12-06T12:32:18.032Z,11.50
2018-12-06T12:34:46.432Z,11.50
2018-12-06T12:37:14.930Z,11.50
2018-12-06T12:39:43.375Z,11.50
2018-12-06T12:42:11.865Z,11.50
2018-12-06T12:44:41.473Z,11.60
2018-12-06T12:47:09.963Z,11.60
2018-12-06T12:49:38.485Z,11.60
2018-12-06T12:52:07.329Z,11.60
2018-12-06T12:54:35.962Z,11.60
2018-12-06T12:57:04.552Z,11.60
2018-12-06T12:59:33.056Z,11.60
2018-12-06T13:02:01.561Z,11.60
2018-12-06T13:04:30.216Z,11.60
2018-12-06T13:07:08.610Z,11.60
2018-12-06T13:09:37.250Z,11.60
2018-12-06T13:12:05.806Z,11.60
2018-12-06T13:14:34.282Z,11.60
2018-12-06T13:17:02.790Z,11.60
2018-12-06T13:19:31.321Z,11.60
2018-12-06T13:21:59.786Z,11.70
2018-12-06T13:24:28.185Z,11.70
2018-12-06T13:26:56.626Z,11.70
2018-12-06T13:29:25.179Z,11.70
2018-12-06T13:31:54.248Z,11.80
2018-12-06T13:34:22.646Z,11.70
2018-12-06T13:36:51.074Z,11.70
2018-12-06T13:39:19.501Z,11.70
2018-12-06T13:41:47.966Z,11.70
2018-12-06T13:44:16.549Z,11.70
2018-12-06T13:46:45.037Z,11.70
2018-12-06T13:49:13.492Z,11.70
2018-12-06T13:51:41.969Z,11.70
2018-12-06T13:54:10.440Z,11.70
2018-12-06T13:56:38.878Z,11.60
2018-12-06T13:59:07.350Z,11.60
2018-12-06T14:01:35.897Z,11.70
2018-12-06T14:04:04.527Z,11.70
2018-12-06T14:06:33.005Z,11.70
2018-12-06T14:09:01.476Z,11.70
2018-12-06T14:11:29.944Z,11.70
2018-12-06T14:13:58.409Z,11.70
2018-12-06T14:16:26.913Z,11.70
2018-12-06T14:18:55.227Z,11.70
2018-12-06T14:21:23.694Z,11.80
2018-12-06T14:23:52.185Z,11.80
2018-12-06T14:26:20.683Z,11.80
2018-12-06T14:28:49.302Z,11.70
2018-12-06T14:31:17.814Z,11.80
2018-12-06T14:33:46.304Z,11.80
2018-12-06T14:36:14.993Z,11.70
2018-12-06T14:38:43.814Z,11.70
2018-12-06T14:41:12.250Z,11.80
2018-12-06T14:43:40.711Z,11.80
2018-12-06T14:46:09.708Z,11.80
2018-12-06T14:48:38.354Z,11.80
2018-12-06T14:51:07.120Z,11.90
2018-12-06T14:53:35.586Z,11.90
2018-12-06T14:56:04.240Z,11.90
2018-12-06T14:58:33.268Z,11.90
2018-12-06T15:01:01.693Z,11.90
2018-12-06T15:03:30.278Z,11.90
2018-12-06T15:05:58.709Z,11.90
2018-12-06T15:08:27.123Z,11.80
2018-12-06T15:10:55.583Z,11.80
2018-12-06T15:13:24.649Z,11.80
2018-12-06T15:15:53.112Z,11.70
2018-12-06T15:18:21.576Z,11.70
2018-12-06T15:20:50.036Z,11.70
2018-12-06T15:23:18.585Z,11.70
2018-12-06T15:25:47.030Z,11.70
2018-12-06T15:28:15.638Z,11.70
2018-12-06T15:30:44.047Z,11.80
2018-12-06T15:33:12.578Z,11.80
2018-12-06T15:35:41.108Z,11.80
2018-12-06T15:38:09.532Z,11.80
2018-12-06T15:40:38.474Z,11.80
2018-12-06T15:43:07.020Z,11.80
2018-12-06T15:45:35.415Z,11.80
2018-12-06T15:48:03.988Z,11.80
2018-12-06T15:50:32.492Z,11.80
2018-12-06T15:53:00.955Z,11.80
2018-12-06T15:55:29.464Z,11.80
2018-12-06T15:57:57.886Z,11.90
2018-12-06T16:00:26.381Z,11.90
2018-12-06T16:02:54.840Z,11.90
2018-12-06T16:05:23.472Z,12.00
2018-12-06T16:07:51.856Z,12.00
2018-12-06T16:10:20.298Z,12.10
2018-12-06T16:12:48.742Z,12.10
2018-12-06T16:15:17.164Z,12.10
2018-12-06T16:17:45.565Z,12.10
2018-12-06T16:20:14.041Z,12.10
2018-12-06T16:22:42.424Z,12.10
2018-12-06T16:25:10.843Z,12.10
2018-12-06T16:27:39.268Z,12.10
2018-12-06T16:30:08.945Z,12.10
2018-12-06T16:32:37.469Z,12.10
2018-12-06T16:35:06.194Z,12.00
2018-12-06T16:37:34.632Z,12.00
2018-12-06T16:40:03.872Z,12.00
2018-12-06T16:42:32.294Z,12.00
2018-12-06T16:45:00.873Z,12.00
2018-12-06T16:47:29.372Z,12.00
2018-12-06T16:49:57.858Z,12.00
2018-12-06T16:52:26.312Z,12.00
2018-12-06T16:54:54.756Z,12.00
2018-12-06T16:57:23.194Z,12.00
2018-12-06T16:59:51.694Z,12.00
2018-12-06T17:02:20.127Z,12.00
2018-12-06T17:04:48.640Z,12.00
2018-12-06T17:07:17.133Z,12.00
2018-12-06T17:09:45.590Z,12.00
2018-12-06T17:12:13.966Z,12.00
2018-12-06T17:14:42.539Z,12.00
2018-12-06T17:17:10.980Z,12.00
2018-12-06T17:19:39.481Z,12.00
2018-12-06T17:22:07.980Z,12.00
2018-12-06T17:24:36.373Z,12.00
2018-12-06T17:27:04.991Z,12.00
2018-12-06T17:29:33.897Z,12.00
2018-12-06T17:32:02.297Z,12.10
2018-12-06T17:34:30.710Z,12.10
2018-12-06T17:37:00.375Z,12.10
2018-12-06T17:39:28.840Z,12.10
2018-12-06T17:41:57.407Z,12.10
2018-12-06T17:44:25.907Z,12.10
2018-12-06T17:46:54.601Z,12.10
2018-12-06T17:49:23.049Z,12.10
2018-12-06T17:51:51.499Z,12.10
2018-12-06T17:54:19.976Z,12.10
2018-12-06T17:56:48.450Z,12.10
2018-12-06T17:59:16.877Z,12.10
2018-12-06T18:01:45.413Z,12.10
2018-12-06T18:04:13.859Z,12.10
2018-12-06T18:06:42.386Z,12.10
2018-12-06T18:09:10.809Z,12.10
2018-12-06T18:11:39.324Z,12.00
2018-12-06T18:14:07.731Z,11.90
2018-12-06T18:16:36.947Z,11.90
2018-12-06T18:19:05.357Z,11.80
2018-12-06T18:21:33.771Z,11.80
2018-12-06T18:24:02.285Z,11.80
2018-12-06T18:26:30.715Z,11.80
2018-12-06T18:28:59.167Z,11.80
2018-12-06T18:31:27.788Z,11.80
2018-12-06T18:33:56.225Z,11.80
2018-12-06T18:36:24.696Z,11.80
2018-12-06T18:38:53.101Z,11.80
2018-12-06T18:41:21.690Z,11.80
2018-12-06T18:43:50.098Z,11.80
2018-12-06T18:46:18.877Z,11.80
2018-12-06T18:48:47.291Z,11.80
2018-12-06T18:51:15.790Z,11.80
2018-12-06T18:53:44.395Z,11.80
2018-12-06T18:56:13.211Z,11.90
2018-12-06T18:58:41.646Z,11.90
2018-12-06T19:01:10.125Z,11.80
2018-12-06T19:03:38.554Z,11.90
2018-12-06T19:06:07.001Z,11.90
2018-12-06T19:08:35.431Z,11.90
2018-12-06T19:11:04.029Z,11.90
2018-12-06T19:13:32.437Z,11.90
2018-12-06T19:16:00.925Z,11.90
2018-12-06T19:18:29.441Z,11.90
2018-12-06T19:20:57.887Z,11.90
2018-12-06T19:23:26.569Z,11.90
2018-12-06T19:25:55.033Z,11.90
2018-12-06T19:28:23.637Z,11.90
2018-12-06T19:30:52.061Z,11.90
2018-12-06T19:33:20.763Z,11.90
2018-12-06T19:35:49.197Z,11.80
2018-12-06T19:38:17.727Z,11.90
2018-12-06T19:40:46.168Z,11.90
2018-12-06T19:43:14.617Z,11.90
2018-12-06T19:45:43.207Z,11.90
2018-12-06T19:48:11.697Z,11.90
2018-12-06T19:50:40.107Z,11.90
2018-12-06T19:53:08.969Z,11.80
2018-12-06T19:55:38.167Z,11.80
2018-12-06T19:58:06.627Z,11.80
2018-12-06T20:00:35.304Z,11.80
2018-12-06T20:03:03.729Z,11.80
2018-12-06T20:05:32.229Z,11.90
2018-12-06T20:08:02.632Z,11.90
2018-12-06T20:10:31.380Z,11.90
2018-12-06T20:12:59.997Z,11.90
2018-12-06T20:15:28.670Z,12.00
2018-12-06T20:17:57.676Z,12.00
2018-12-06T20:20:26.358Z,11.90
2018-12-06T20:22:55.201Z,11.90
2018-12-06T20:25:23.885Z,12.00
2018-12-06T20:27:52.600Z,12.00
2018-12-06T20:30:21.294Z,12.00
2018-12-06T20:32:49.999Z,12.00
2018-12-06T20:35:18.837Z,11.90
2018-12-06T20:37:53.151Z,11.90
2018-12-06T20:40:22.131Z,11.90
2018-12-06T20:42:54.087Z,11.90
2018-12-06T20:45:23.265Z,11.80
2018-12-06T20:47:52.731Z,11.80
2018-12-06T20:50:21.889Z,11.70
2018-12-06T20:52:50.980Z,11.70
2018-12-06T20:55:20.020Z,11.70
2018-12-06T20:57:48.608Z,11.70
2018-12-06T21:00:17.225Z,11.70
2018-12-06T21:02:45.902Z,11.70
2018-12-06T21:05:14.557Z,11.70
2018-12-06T21:07:44.091Z,11.60
2018-12-06T21:10:13.631Z,11.70
2018-12-06T21:12:45.658Z,11.60
2018-12-06T21:15:15.723Z,11.70
2018-12-06T21:17:45.444Z,11.60
2018-12-06T21:20:15.403Z,11.60
2018-12-06T21:22:45.318Z,11.70
2018-12-06T21:25:15.191Z,11.70
2018-12-06T21:27:43.589Z,11.70
2018-12-06T21:30:12.316Z,11.70
2018-12-06T21:32:41.387Z,11.80
2018-12-06T21:35:10.278Z,11.80
2018-12-06T21:37:42.393Z,11.90
2018-12-06T21:40:11.943Z,12.00
2018-12-06T21:42:40.444Z,12.00
2018-12-06T21:45:09.617Z,12.00
2018-12-06T21:47:38.796Z,12.00
2018-12-06T21:50:09.429Z,12.00
2018-12-06T21:52:38.426Z,12.10
2018-12-06T21:55:07.514Z,12.10
2018-12-06T21:57:37.534Z,12.20
2018-12-06T22:00:08.020Z,12.20
2018-12-06T22:02:37.669Z,12.20
2018-12-06T22:05:08.021Z,12.20
2018-12-06T22:07:36.656Z,12.20
2018-12-06T22:10:06.188Z,12.20
2018-12-06T22:12:34.540Z,12.20
2018-12-06T22:15:02.949Z,12.30
2018-12-06T22:17:31.476Z,12.30
2018-12-06T22:19:59.848Z,12.30
2018-12-06T22:22:29.624Z,12.30
2018-12-06T22:24:57.956Z,12.30
2018-12-06T22:27:26.359Z,12.30
2018-12-06T22:29:54.749Z,12.30
2018-12-06T22:32:23.266Z,12.30
2018-12-06T22:34:51.724Z,12.30
2018-12-06T22:37:20.192Z,12.30
2018-12-06T22:39:48.544Z,12.30
2018-12-06T22:42:16.978Z,12.30
2018-12-06T22:44:45.426Z,12.30
2018-12-06T22:47:13.810Z,12.30
2018-12-06T22:49:42.278Z,12.30
2018-12-06T22:52:10.762Z,12.30
2018-12-06T22:54:39.168Z,12.30
2018-12-06T22:57:08.549Z,12.30
2018-12-06T22:59:36.996Z,12.30
2018-12-06T23:02:05.678Z,12.30
2018-12-06T23:04:34.114Z,12.30
2018-12-06T23:07:02.540Z,12.30
2018-12-06T23:09:30.973Z,12.30
2018-12-06T23:11:59.408Z,12.30
2018-12-06T23:14:28.003Z,12.40
2018-12-06T23:16:56.380Z,12.30
2018-12-06T23:19:24.923Z,12.30
2018-12-06T23:21:53.351Z,12.40
2018-12-06T23:24:21.837Z,12.40
2018-12-06T23:26:50.269Z,12.40
2018-12-06T23:29:18.777Z,12.40
2018-12-06T23:31:47.357Z,12.40
2018-12-06T23:34:15.812Z,12.50
2018-12-06T23:36:44.217Z,12.40
2018-12-06T23:39:13.626Z,12.30
2018-12-06T23:41:42.186Z,12.30
2018-12-06T23:44:10.628Z,12.30
2018-12-06T23:46:38.988Z,12.20
2018-12-06T23:49:07.470Z,12.20
2018-12-06T23:51:38.533Z,12.20
2018-12-06T23:54:07.065Z,12.20
2018-12-06T23:56:35.533Z,12.10
2018-12-06T23:59:04.085Z,12.20
